sensor_id;sensor_type;location;lat;lon;timestamp;P1;durP1;ratioP1;P2;durP2;ratioP2
47335;SDS011;33068;51.990;5.926;2022-12-29T00:02:39;2.63;;;2.08;;
47335;SDS011;33068;51.990;5.926;2022-12-29T00:05:08;3.40;;;2.22;;
47335;SDS011;33068;51.990;5.926;2022-12-29T00:07:36;3.13;;;2.38;;
47335;SDS011;33068;51.990;5.926;2022-12-29T00:10:09;4.72;;;2.05;;
47335;SDS011;33068;51.990;5.926;2022-12-29T00:12:41;4.95;;;2.72;;
47335;SDS011;33068;51.990;5.926;2022-12-29T00:15:25;2.35;;;2.15;;
47335;SDS011;33068;51.990;5.926;2022-12-29T00:18:06;2.25;;;1.67;;
47335;SDS011;33068;51.990;5.926;2022-12-29T00:20:36;2.75;;;2.40;;
47335;SDS011;33068;51.990;5.926;2022-12-29T00:23:36;4.40;;;2.08;;
47335;SDS011;33068;51.990;5.926;2022-12-29T00:26:22;2.75;;;2.10;;
47335;SDS011;33068;51.990;5.926;2022-12-29T00:29:11;3.45;;;2.05;;
47335;SDS011;33068;51.990;5.926;2022-12-29T00:32:06;3.17;;;2.13;;
47335;SDS011;33068;51.990;5.926;2022-12-29T00:34:53;3.20;;;2.28;;
47335;SDS011;33068;51.990;5.926;2022-12-29T00:37:37;3.58;;;2.42;;
47335;SDS011;33068;51.990;5.926;2022-12-29T00:40:28;2.95;;;2.20;;
47335;SDS011;33068;51.990;5.926;2022-12-29T00:43:15;3.53;;;2.70;;
47335;SDS011;33068;51.990;5.926;2022-12-29T00:46:00;3.88;;;2.08;;
47335;SDS011;33068;51.990;5.926;2022-12-29T00:48:30;4.22;;;2.03;;
47335;SDS011;33068;51.990;5.926;2022-12-29T00:51:25;3.67;;;2.20;;
47335;SDS011;33068;51.990;5.926;2022-12-29T00:53:52;2.83;;;1.80;;
47335;SDS011;33068;51.990;5.926;2022-12-29T00:56:23;2.58;;;2.13;;
47335;SDS011;33068;51.990;5.926;2022-12-29T00:58:50;2.47;;;1.90;;
47335;SDS011;33068;51.990;5.926;2022-12-29T01:01:19;1.75;;;1.30;;
47335;SDS011;33068;51.990;5.926;2022-12-29T01:03:58;2.65;;;1.85;;
47335;SDS011;33068;51.990;5.926;2022-12-29T01:06:32;2.55;;;1.52;;
47335;SDS011;33068;51.990;5.926;2022-12-29T01:09:01;3.38;;;1.30;;
47335;SDS011;33068;51.990;5.926;2022-12-29T01:11:47;1.67;;;1.13;;
47335;SDS011;33068;51.990;5.926;2022-12-29T01:14:17;1.45;;;1.33;;
47335;SDS011;33068;51.990;5.926;2022-12-29T01:16:51;2.60;;;1.00;;
47335;SDS011;33068;51.990;5.926;2022-12-29T01:19:19;1.48;;;0.77;;
47335;SDS011;33068;51.990;5.926;2022-12-29T01:21:49;1.55;;;1.00;;
47335;SDS011;33068;51.990;5.926;2022-12-29T01:24:18;0.93;;;0.57;;
47335;SDS011;33068;51.990;5.926;2022-12-29T01:26:51;1.27;;;0.85;;
47335;SDS011;33068;51.990;5.926;2022-12-29T01:29:24;0.65;;;0.40;;
47335;SDS011;33068;51.990;5.926;2022-12-29T01:31:51;5.13;;;0.75;;
47335;SDS011;33068;51.990;5.926;2022-12-29T01:34:22;1.45;;;0.50;;
47335;SDS011;33068;51.990;5.926;2022-12-29T01:37:06;1.50;;;0.50;;
47335;SDS011;33068;51.990;5.926;2022-12-29T01:39:34;0.93;;;0.50;;
47335;SDS011;33068;51.990;5.926;2022-12-29T01:42:03;1.23;;;0.50;;
47335;SDS011;33068;51.990;5.926;2022-12-29T01:44:50;2.97;;;0.50;;
47335;SDS011;33068;51.990;5.926;2022-12-29T01:47:29;2.67;;;0.60;;
47335;SDS011;33068;51.990;5.926;2022-12-29T01:50:04;2.20;;;0.70;;
47335;SDS011;33068;51.990;5.926;2022-12-29T01:52:42;0.60;;;0.60;;
47335;SDS011;33068;51.990;5.926;2022-12-29T01:55:19;1.17;;;0.82;;
47335;SDS011;33068;51.990;5.926;2022-12-29T01:57:49;2.03;;;0.80;;
47335;SDS011;33068;51.990;5.926;2022-12-29T02:00:26;1.20;;;1.00;;
47335;SDS011;33068;51.990;5.926;2022-12-29T02:03:01;5.40;;;1.10;;
47335;SDS011;33068;51.990;5.926;2022-12-29T02:05:30;2.10;;;1.30;;
47335;SDS011;33068;51.990;5.926;2022-12-29T02:08:04;3.10;;;1.40;;
47335;SDS011;33068;51.990;5.926;2022-12-29T02:10:33;2.92;;;1.33;;
47335;SDS011;33068;51.990;5.926;2022-12-29T02:13:02;3.67;;;1.10;;
47335;SDS011;33068;51.990;5.926;2022-12-29T02:15:33;3.03;;;1.15;;
47335;SDS011;33068;51.990;5.926;2022-12-29T02:18:18;1.40;;;1.23;;
47335;SDS011;33068;51.990;5.926;2022-12-29T02:21:06;1.17;;;1.08;;
47335;SDS011;33068;51.990;5.926;2022-12-29T02:24:10;1.92;;;0.98;;
47335;SDS011;33068;51.990;5.926;2022-12-29T02:27:01;1.38;;;0.82;;
47335;SDS011;33068;51.990;5.926;2022-12-29T02:29:56;1.25;;;1.10;;
47335;SDS011;33068;51.990;5.926;2022-12-29T02:32:38;0.95;;;0.82;;
47335;SDS011;33068;51.990;5.926;2022-12-29T02:35:14;1.10;;;1.00;;
47335;SDS011;33068;51.990;5.926;2022-12-29T02:37:55;2.53;;;0.60;;
47335;SDS011;33068;51.990;5.926;2022-12-29T02:40:31;4.18;;;1.30;;
47335;SDS011;33068;51.990;5.926;2022-12-29T02:45:38;1.13;;;0.50;;
47335;SDS011;33068;51.990;5.926;2022-12-29T02:48:17;2.33;;;0.50;;
47335;SDS011;33068;51.990;5.926;2022-12-29T02:50:50;2.83;;;0.90;;
47335;SDS011;33068;51.990;5.926;2022-12-29T02:53:24;2.00;;;0.60;;
47335;SDS011;33068;51.990;5.926;2022-12-29T02:56:06;3.53;;;0.63;;
47335;SDS011;33068;51.990;5.926;2022-12-29T02:58:33;3.80;;;0.50;;
47335;SDS011;33068;51.990;5.926;2022-12-29T03:01:04;0.88;;;0.20;;
47335;SDS011;33068;51.990;5.926;2022-12-29T03:03:58;0.77;;;0.40;;
47335;SDS011;33068;51.990;5.926;2022-12-29T03:06:35;1.55;;;0.50;;
47335;SDS011;33068;51.990;5.926;2022-12-29T03:09:19;4.32;;;0.30;;
47335;SDS011;33068;51.990;5.926;2022-12-29T03:11:58;10.35;;;0.68;;
47335;SDS011;33068;51.990;5.926;2022-12-29T03:14:36;3.33;;;0.57;;
47335;SDS011;33068;51.990;5.926;2022-12-29T03:17:26;3.17;;;0.63;;
47335;SDS011;33068;51.990;5.926;2022-12-29T03:20:04;1.38;;;0.22;;
47335;SDS011;33068;51.990;5.926;2022-12-29T03:22:38;2.67;;;0.30;;
47335;SDS011;33068;51.990;5.926;2022-12-29T03:25:17;2.65;;;0.20;;
47335;SDS011;33068;51.990;5.926;2022-12-29T03:27:49;4.10;;;0.50;;
47335;SDS011;33068;51.990;5.926;2022-12-29T03:30:19;3.05;;;0.50;;
47335;SDS011;33068;51.990;5.926;2022-12-29T03:32:48;2.78;;;0.35;;
47335;SDS011;33068;51.990;5.926;2022-12-29T03:35:21;2.42;;;0.32;;
47335;SDS011;33068;51.990;5.926;2022-12-29T03:37:52;1.65;;;0.40;;
47335;SDS011;33068;51.990;5.926;2022-12-29T03:40:36;4.30;;;0.38;;
47335;SDS011;33068;51.990;5.926;2022-12-29T03:43:07;0.68;;;0.25;;
47335;SDS011;33068;51.990;5.926;2022-12-29T03:45:35;1.88;;;0.20;;
47335;SDS011;33068;51.990;5.926;2022-12-29T03:48:03;2.67;;;0.38;;
47335;SDS011;33068;51.990;5.926;2022-12-29T03:50:32;3.60;;;0.30;;
47335;SDS011;33068;51.990;5.926;2022-12-29T03:53:02;3.13;;;0.60;;
47335;SDS011;33068;51.990;5.926;2022-12-29T03:55:30;3.95;;;0.40;;
47335;SDS011;33068;51.990;5.926;2022-12-29T03:57:57;6.45;;;0.30;;
47335;SDS011;33068;51.990;5.926;2022-12-29T04:03:10;3.35;;;0.20;;
47335;SDS011;33068;51.990;5.926;2022-12-29T04:05:39;4.70;;;0.30;;
47335;SDS011;33068;51.990;5.926;2022-12-29T04:08:06;1.92;;;0.30;;
47335;SDS011;33068;51.990;5.926;2022-12-29T04:10:34;2.92;;;0.30;;
47335;SDS011;33068;51.990;5.926;2022-12-29T04:13:03;2.38;;;0.40;;
47335;SDS011;33068;51.990;5.926;2022-12-29T04:15:33;2.08;;;0.45;;
47335;SDS011;33068;51.990;5.926;2022-12-29T04:18:01;2.83;;;0.20;;
47335;SDS011;33068;51.990;5.926;2022-12-29T04:20:28;1.80;;;0.25;;
47335;SDS011;33068;51.990;5.926;2022-12-29T04:23:14;1.60;;;0.30;;
47335;SDS011;33068;51.990;5.926;2022-12-29T04:25:44;2.45;;;0.40;;
47335;SDS011;33068;51.990;5.926;2022-12-29T04:28:12;2.35;;;0.22;;
47335;SDS011;33068;51.990;5.926;2022-12-29T04:31:00;5.13;;;0.47;;
47335;SDS011;33068;51.990;5.926;2022-12-29T04:33:32;3.35;;;0.47;;
47335;SDS011;33068;51.990;5.926;2022-12-29T04:36:00;3.53;;;0.40;;
47335;SDS011;33068;51.990;5.926;2022-12-29T04:38:29;3.90;;;0.30;;
47335;SDS011;33068;51.990;5.926;2022-12-29T04:40:58;4.25;;;0.50;;
47335;SDS011;33068;51.990;5.926;2022-12-29T04:43:26;1.58;;;0.30;;
47335;SDS011;33068;51.990;5.926;2022-12-29T04:46:12;4.25;;;0.20;;
47335;SDS011;33068;51.990;5.926;2022-12-29T04:49:11;3.08;;;0.40;;
47335;SDS011;33068;51.990;5.926;2022-12-29T04:51:55;7.18;;;0.50;;
47335;SDS011;33068;51.990;5.926;2022-12-29T04:54:24;1.50;;;0.30;;
47335;SDS011;33068;51.990;5.926;2022-12-29T04:57:02;3.40;;;0.30;;
47335;SDS011;33068;51.990;5.926;2022-12-29T04:59:30;3.13;;;0.70;;
47335;SDS011;33068;51.990;5.926;2022-12-29T05:01:58;1.38;;;0.28;;
47335;SDS011;33068;51.990;5.926;2022-12-29T05:04:27;4.38;;;0.38;;
47335;SDS011;33068;51.990;5.926;2022-12-29T05:06:54;4.72;;;0.40;;
47335;SDS011;33068;51.990;5.926;2022-12-29T05:09:24;4.88;;;0.50;;
47335;SDS011;33068;51.990;5.926;2022-12-29T05:12:14;2.17;;;0.35;;
47335;SDS011;33068;51.990;5.926;2022-12-29T05:15:10;7.30;;;0.63;;
47335;SDS011;33068;51.990;5.926;2022-12-29T05:17:52;5.30;;;0.43;;
47335;SDS011;33068;51.990;5.926;2022-12-29T05:20:31;1.48;;;0.32;;
47335;SDS011;33068;51.990;5.926;2022-12-29T05:24:02;3.33;;;0.88;;
47335;SDS011;33068;51.990;5.926;2022-12-29T05:26:42;5.65;;;0.43;;
47335;SDS011;33068;51.990;5.926;2022-12-29T05:29:50;2.65;;;0.30;;
47335;SDS011;33068;51.990;5.926;2022-12-29T05:32:23;7.22;;;0.70;;
47335;SDS011;33068;51.990;5.926;2022-12-29T05:34:51;3.20;;;0.45;;
47335;SDS011;33068;51.990;5.926;2022-12-29T05:37:19;1.98;;;0.60;;
47335;SDS011;33068;51.990;5.926;2022-12-29T05:39:56;2.78;;;0.40;;
47335;SDS011;33068;51.990;5.926;2022-12-29T05:42:44;2.63;;;0.40;;
47335;SDS011;33068;51.990;5.926;2022-12-29T05:45:52;5.05;;;0.82;;
47335;SDS011;33068;51.990;5.926;2022-12-29T05:48:34;5.40;;;0.50;;
47335;SDS011;33068;51.990;5.926;2022-12-29T05:51:54;1.60;;;0.40;;
47335;SDS011;33068;51.990;5.926;2022-12-29T05:54:30;2.08;;;0.40;;
47335;SDS011;33068;51.990;5.926;2022-12-29T06:22:08;8.80;;;0.60;;
47335;SDS011;33068;51.990;5.926;2022-12-29T06:24:49;6.70;;;1.20;;
47335;SDS011;33068;51.990;5.926;2022-12-29T06:27:18;6.22;;;0.40;;
47335;SDS011;33068;51.990;5.926;2022-12-29T06:31:03;4.97;;;0.88;;
47335;SDS011;33068;51.990;5.926;2022-12-29T06:33:23;5.22;;;0.65;;
47335;SDS011;33068;51.990;5.926;2022-12-29T06:36:08;6.13;;;0.95;;
47335;SDS011;33068;51.990;5.926;2022-12-29T06:38:43;5.43;;;0.57;;
47335;SDS011;33068;51.990;5.926;2022-12-29T06:42:04;9.38;;;0.50;;
47335;SDS011;33068;51.990;5.926;2022-12-29T06:44:43;6.90;;;0.57;;
47335;SDS011;33068;51.990;5.926;2022-12-29T06:47:41;2.63;;;0.77;;
47335;SDS011;33068;51.990;5.926;2022-12-29T06:51:18;5.80;;;0.82;;
47335;SDS011;33068;51.990;5.926;2022-12-29T06:53:53;5.80;;;1.10;;
47335;SDS011;33068;51.990;5.926;2022-12-29T06:57:35;8.70;;;3.00;;
47335;SDS011;33068;51.990;5.926;2022-12-29T07:00:28;4.53;;;0.80;;
47335;SDS011;33068;51.990;5.926;2022-12-29T07:03:09;6.93;;;1.20;;
47335;SDS011;33068;51.990;5.926;2022-12-29T07:05:54;4.63;;;0.80;;
47335;SDS011;33068;51.990;5.926;2022-12-29T07:11:57;4.85;;;0.85;;
47335;SDS011;33068;51.990;5.926;2022-12-29T07:14:33;4.80;;;0.65;;
47335;SDS011;33068;51.990;5.926;2022-12-29T07:17:15;3.45;;;1.08;;
47335;SDS011;33068;51.990;5.926;2022-12-29T07:23:27;8.57;;;2.90;;
47335;SDS011;33068;51.990;5.926;2022-12-29T07:26:47;14.82;;;5.65;;
47335;SDS011;33068;51.990;5.926;2022-12-29T07:29:23;14.43;;;5.13;;
47335;SDS011;33068;51.990;5.926;2022-12-29T07:31:57;7.15;;;1.40;;
47335;SDS011;33068;51.990;5.926;2022-12-29T07:34:38;5.13;;;0.32;;
47335;SDS011;33068;51.990;5.926;2022-12-29T07:37:20;5.38;;;0.47;;
47335;SDS011;33068;51.990;5.926;2022-12-29T07:40:42;10.20;;;0.93;;
47335;SDS011;33068;51.990;5.926;2022-12-29T07:53:57;6.38;;;0.70;;
47335;SDS011;33068;51.990;5.926;2022-12-29T07:58:36;5.97;;;0.40;;
47335;SDS011;33068;51.990;5.926;2022-12-29T08:01:27;4.80;;;0.50;;
47335;SDS011;33068;51.990;5.926;2022-12-29T08:03:54;7.07;;;0.50;;
47335;SDS011;33068;51.990;5.926;2022-12-29T08:09:25;6.40;;;0.52;;
47335;SDS011;33068;51.990;5.926;2022-12-29T08:12:11;7.10;;;1.02;;
47335;SDS011;33068;51.990;5.926;2022-12-29T08:14:43;9.23;;;0.95;;
47335;SDS011;33068;51.990;5.926;2022-12-29T08:23:48;7.72;;;0.68;;
47335;SDS011;33068;51.990;5.926;2022-12-29T08:24:44;4.05;;;0.52;;
47335;SDS011;33068;51.990;5.926;2022-12-29T08:30:48;4.25;;;0.43;;
47335;SDS011;33068;51.990;5.926;2022-12-29T08:34:41;5.15;;;0.68;;
47335;SDS011;33068;51.990;5.926;2022-12-29T08:37:19;11.90;;;3.28;;
47335;SDS011;33068;51.990;5.926;2022-12-29T08:39:49;7.55;;;1.45;;
47335;SDS011;33068;51.990;5.926;2022-12-29T08:42:40;14.02;;;2.10;;
47335;SDS011;33068;51.990;5.926;2022-12-29T08:45:42;8.05;;;1.30;;
47335;SDS011;33068;51.990;5.926;2022-12-29T08:48:34;11.30;;;1.60;;
47335;SDS011;33068;51.990;5.926;2022-12-29T08:51:01;12.38;;;1.67;;
47335;SDS011;33068;51.990;5.926;2022-12-29T08:53:36;5.75;;;1.38;;
47335;SDS011;33068;51.990;5.926;2022-12-29T08:56:05;6.22;;;1.00;;
47335;SDS011;33068;51.990;5.926;2022-12-29T08:58:47;9.13;;;1.40;;
47335;SDS011;33068;51.990;5.926;2022-12-29T09:01:34;11.73;;;2.08;;
47335;SDS011;33068;51.990;5.926;2022-12-29T09:04:12;6.93;;;1.15;;
47335;SDS011;33068;51.990;5.926;2022-12-29T09:06:43;9.93;;;0.90;;
47335;SDS011;33068;51.990;5.926;2022-12-29T09:09:12;7.35;;;1.00;;
47335;SDS011;33068;51.990;5.926;2022-12-29T09:11:42;11.55;;;2.92;;
47335;SDS011;33068;51.990;5.926;2022-12-29T09:14:09;8.60;;;1.02;;
47335;SDS011;33068;51.990;5.926;2022-12-29T09:16:38;10.15;;;1.75;;
47335;SDS011;33068;51.990;5.926;2022-12-29T09:19:26;7.47;;;1.20;;
47335;SDS011;33068;51.990;5.926;2022-12-29T09:21:53;10.27;;;1.73;;
47335;SDS011;33068;51.990;5.926;2022-12-29T09:24:20;15.05;;;2.53;;
47335;SDS011;33068;51.990;5.926;2022-12-29T09:26:48;14.80;;;2.03;;
47335;SDS011;33068;51.990;5.926;2022-12-29T09:29:15;12.40;;;2.10;;
47335;SDS011;33068;51.990;5.926;2022-12-29T09:31:43;8.15;;;0.93;;
47335;SDS011;33068;51.990;5.926;2022-12-29T09:34:10;9.10;;;0.93;;
47335;SDS011;33068;51.990;5.926;2022-12-29T09:36:38;9.10;;;0.85;;
47335;SDS011;33068;51.990;5.926;2022-12-29T09:39:11;9.98;;;1.15;;
47335;SDS011;33068;51.990;5.926;2022-12-29T09:41:39;9.25;;;0.90;;
47335;SDS011;33068;51.990;5.926;2022-12-29T09:44:15;9.07;;;0.65;;
47335;SDS011;33068;51.990;5.926;2022-12-29T09:46:47;7.88;;;0.77;;
47335;SDS011;33068;51.990;5.926;2022-12-29T09:49:29;12.70;;;0.85;;
47335;SDS011;33068;51.990;5.926;2022-12-29T09:52:14;8.23;;;1.13;;
47335;SDS011;33068;51.990;5.926;2022-12-29T09:54:51;12.05;;;1.20;;
47335;SDS011;33068;51.990;5.926;2022-12-29T09:57:57;4.70;;;0.80;;
47335;SDS011;33068;51.990;5.926;2022-12-29T10:03:24;12.88;;;1.83;;
47335;SDS011;33068;51.990;5.926;2022-12-29T10:06:04;9.38;;;1.00;;
47335;SDS011;33068;51.990;5.926;2022-12-29T10:08:50;8.88;;;0.85;;
47335;SDS011;33068;51.990;5.926;2022-12-29T10:14:53;4.55;;;1.13;;
47335;SDS011;33068;51.990;5.926;2022-12-29T10:17:38;7.90;;;0.80;;
47335;SDS011;33068;51.990;5.926;2022-12-29T10:20:22;10.35;;;1.15;;
47335;SDS011;33068;51.990;5.926;2022-12-29T10:23:03;2.67;;;0.50;;
47335;SDS011;33068;51.990;5.926;2022-12-29T10:25:48;9.75;;;0.80;;
47335;SDS011;33068;51.990;5.926;2022-12-29T10:28:46;8.35;;;0.75;;
47335;SDS011;33068;51.990;5.926;2022-12-29T10:31:37;9.35;;;1.35;;
47335;SDS011;33068;51.990;5.926;2022-12-29T10:34:18;6.10;;;0.70;;
47335;SDS011;33068;51.990;5.926;2022-12-29T10:37:09;3.45;;;0.50;;
47335;SDS011;33068;51.990;5.926;2022-12-29T10:40:15;6.03;;;0.90;;
47335;SDS011;33068;51.990;5.926;2022-12-29T10:42:55;3.72;;;0.80;;
47335;SDS011;33068;51.990;5.926;2022-12-29T10:49:17;13.18;;;1.50;;
47335;SDS011;33068;51.990;5.926;2022-12-29T10:53:15;12.10;;;2.50;;
47335;SDS011;33068;51.990;5.926;2022-12-29T10:59:50;7.32;;;1.45;;
47335;SDS011;33068;51.990;5.926;2022-12-29T11:15:12;12.75;;;2.92;;
47335;SDS011;33068;51.990;5.926;2022-12-29T11:18:49;7.45;;;2.80;;
47335;SDS011;33068;51.990;5.926;2022-12-29T11:21:34;7.20;;;2.08;;
47335;SDS011;33068;51.990;5.926;2022-12-29T11:24:22;12.15;;;2.83;;
47335;SDS011;33068;51.990;5.926;2022-12-29T11:30:12;17.35;;;3.85;;
47335;SDS011;33068;51.990;5.926;2022-12-29T11:33:04;8.13;;;2.20;;
47335;SDS011;33068;51.990;5.926;2022-12-29T11:35:46;7.22;;;2.25;;
47335;SDS011;33068;51.990;5.926;2022-12-29T11:42:23;12.60;;;2.38;;
47335;SDS011;33068;51.990;5.926;2022-12-29T11:45:04;8.75;;;2.63;;
47335;SDS011;33068;51.990;5.926;2022-12-29T11:47:47;7.60;;;2.65;;
47335;SDS011;33068;51.990;5.926;2022-12-29T11:50:19;10.75;;;2.70;;
47335;SDS011;33068;51.990;5.926;2022-12-29T11:52:57;14.30;;;3.55;;
47335;SDS011;33068;51.990;5.926;2022-12-29T11:55:27;13.80;;;3.30;;
47335;SDS011;33068;51.990;5.926;2022-12-29T11:58:03;17.90;;;3.58;;
47335;SDS011;33068;51.990;5.926;2022-12-29T12:00:34;21.60;;;4.03;;
47335;SDS011;33068;51.990;5.926;2022-12-29T12:03:11;13.48;;;3.63;;
47335;SDS011;33068;51.990;5.926;2022-12-29T12:13:11;18.58;;;4.10;;
47335;SDS011;33068;51.990;5.926;2022-12-29T12:20:34;10.45;;;2.53;;
47335;SDS011;33068;51.990;5.926;2022-12-29T12:23:47;9.95;;;2.50;;
47335;SDS011;33068;51.990;5.926;2022-12-29T12:31:45;10.23;;;2.58;;
47335;SDS011;33068;51.990;5.926;2022-12-29T12:41:29;8.40;;;2.40;;
47335;SDS011;33068;51.990;5.926;2022-12-29T12:55:46;19.65;;;4.35;;
47335;SDS011;33068;51.990;5.926;2022-12-29T12:58:22;19.48;;;4.13;;
47335;SDS011;33068;51.990;5.926;2022-12-29T13:00:59;14.70;;;3.70;;
47335;SDS011;33068;51.990;5.926;2022-12-29T13:03:37;13.55;;;4.15;;
47335;SDS011;33068;51.990;5.926;2022-12-29T13:06:18;15.20;;;4.70;;
47335;SDS011;33068;51.990;5.926;2022-12-29T13:09:06;12.13;;;4.07;;
47335;SDS011;33068;51.990;5.926;2022-12-29T13:11:55;11.00;;;2.85;;
47335;SDS011;33068;51.990;5.926;2022-12-29T13:14:46;21.65;;;5.05;;
47335;SDS011;33068;51.990;5.926;2022-12-29T13:17:23;16.35;;;2.88;;
47335;SDS011;33068;51.990;5.926;2022-12-29T13:31:46;10.75;;;2.78;;
47335;SDS011;33068;51.990;5.926;2022-12-29T13:34:23;12.80;;;3.90;;
47335;SDS011;33068;51.990;5.926;2022-12-29T13:36:59;14.23;;;4.40;;
47335;SDS011;33068;51.990;5.926;2022-12-29T13:39:30;12.18;;;4.07;;
47335;SDS011;33068;51.990;5.926;2022-12-29T13:42:01;11.85;;;2.60;;
47335;SDS011;33068;51.990;5.926;2022-12-29T13:44:31;11.15;;;2.78;;
47335;SDS011;33068;51.990;5.926;2022-12-29T13:47:06;23.70;;;3.05;;
47335;SDS011;33068;51.990;5.926;2022-12-29T13:49:47;11.35;;;2.63;;
47335;SDS011;33068;51.990;5.926;2022-12-29T13:52:18;15.85;;;2.78;;
47335;SDS011;33068;51.990;5.926;2022-12-29T13:55:00;11.38;;;2.55;;
47335;SDS011;33068;51.990;5.926;2022-12-29T13:57:36;13.48;;;2.00;;
47335;SDS011;33068;51.990;5.926;2022-12-29T14:00:19;13.13;;;2.97;;
47335;SDS011;33068;51.990;5.926;2022-12-29T14:03:04;16.20;;;2.60;;
47335;SDS011;33068;51.990;5.926;2022-12-29T14:05:44;19.13;;;3.58;;
47335;SDS011;33068;51.990;5.926;2022-12-29T14:08:18;14.60;;;2.80;;
47335;SDS011;33068;51.990;5.926;2022-12-29T14:15:05;12.38;;;2.17;;
47335;SDS011;33068;51.990;5.926;2022-12-29T14:18:46;9.60;;;2.05;;
47335;SDS011;33068;51.990;5.926;2022-12-29T14:21:19;6.95;;;1.63;;
47335;SDS011;33068;51.990;5.926;2022-12-29T14:23:49;4.38;;;1.77;;
47335;SDS011;33068;51.990;5.926;2022-12-29T14:26:32;7.80;;;1.73;;
47335;SDS011;33068;51.990;5.926;2022-12-29T14:29:15;8.20;;;3.13;;
47335;SDS011;33068;51.990;5.926;2022-12-29T14:34:30;8.13;;;1.20;;
47335;SDS011;33068;51.990;5.926;2022-12-29T14:37:17;5.53;;;1.30;;
47335;SDS011;33068;51.990;5.926;2022-12-29T14:39:52;2.60;;;0.77;;
47335;SDS011;33068;51.990;5.926;2022-12-29T14:42:30;10.23;;;1.35;;
47335;SDS011;33068;51.990;5.926;2022-12-29T14:44:59;3.85;;;1.08;;
47335;SDS011;33068;51.990;5.926;2022-12-29T14:47:37;6.43;;;1.33;;
47335;SDS011;33068;51.990;5.926;2022-12-29T14:50:25;4.13;;;0.95;;
47335;SDS011;33068;51.990;5.926;2022-12-29T14:53:39;7.20;;;2.40;;
47335;SDS011;33068;51.990;5.926;2022-12-29T14:56:17;13.48;;;4.80;;
47335;SDS011;33068;51.990;5.926;2022-12-29T15:03:31;9.60;;;1.50;;
47335;SDS011;33068;51.990;5.926;2022-12-29T15:06:59;4.97;;;1.45;;
47335;SDS011;33068;51.990;5.926;2022-12-29T15:10:15;5.78;;;2.38;;
47335;SDS011;33068;51.990;5.926;2022-12-29T15:13:00;7.75;;;1.48;;
47335;SDS011;33068;51.990;5.926;2022-12-29T15:17:38;6.93;;;1.40;;
47335;SDS011;33068;51.990;5.926;2022-12-29T15:19:20;9.52;;;1.55;;
47335;SDS011;33068;51.990;5.926;2022-12-29T15:22:03;9.63;;;1.33;;
47335;SDS011;33068;51.990;5.926;2022-12-29T15:24:56;7.10;;;1.48;;
47335;SDS011;33068;51.990;5.926;2022-12-29T16:39:19;9.82;;;1.10;;
47335;SDS011;33068;51.990;5.926;2022-12-29T16:42:00;6.00;;;0.98;;
47335;SDS011;33068;51.990;5.926;2022-12-29T16:44:50;11.57;;;1.67;;
47335;SDS011;33068;51.990;5.926;2022-12-29T16:47:38;7.97;;;1.67;;
47335;SDS011;33068;51.990;5.926;2022-12-29T16:50:10;9.15;;;1.30;;
47335;SDS011;33068;51.990;5.926;2022-12-29T16:52:40;15.05;;;3.13;;
47335;SDS011;33068;51.990;5.926;2022-12-29T16:55:30;8.40;;;2.70;;
47335;SDS011;33068;51.990;5.926;2022-12-29T16:58:00;6.60;;;3.03;;
47335;SDS011;33068;51.990;5.926;2022-12-29T17:00:34;10.75;;;1.83;;
47335;SDS011;33068;51.990;5.926;2022-12-29T17:03:20;10.80;;;1.85;;
47335;SDS011;33068;51.990;5.926;2022-12-29T17:05:57;4.75;;;1.90;;
47335;SDS011;33068;51.990;5.926;2022-12-29T17:08:40;6.72;;;1.65;;
47335;SDS011;33068;51.990;5.926;2022-12-29T17:11:21;5.53;;;2.40;;
47335;SDS011;33068;51.990;5.926;2022-12-29T17:18:14;7.88;;;1.67;;
47335;SDS011;33068;51.990;5.926;2022-12-29T17:20:44;11.60;;;4.57;;
47335;SDS011;33068;51.990;5.926;2022-12-29T17:26:04;5.80;;;1.98;;
47335;SDS011;33068;51.990;5.926;2022-12-29T17:28:34;8.23;;;1.90;;
47335;SDS011;33068;51.990;5.926;2022-12-29T17:31:01;10.57;;;2.70;;
47335;SDS011;33068;51.990;5.926;2022-12-29T17:33:32;7.10;;;1.17;;
47335;SDS011;33068;51.990;5.926;2022-12-29T17:36:01;11.13;;;1.45;;
47335;SDS011;33068;51.990;5.926;2022-12-29T17:38:30;9.27;;;1.17;;
47335;SDS011;33068;51.990;5.926;2022-12-29T17:41:02;7.13;;;2.05;;
47335;SDS011;33068;51.990;5.926;2022-12-29T17:51:44;13.07;;;1.77;;
47335;SDS011;33068;51.990;5.926;2022-12-29T17:55:02;9.23;;;1.45;;
47335;SDS011;33068;51.990;5.926;2022-12-29T17:58:07;12.27;;;4.63;;
47335;SDS011;33068;51.990;5.926;2022-12-29T18:00:46;8.77;;;1.60;;
47335;SDS011;33068;51.990;5.926;2022-12-29T18:03:16;13.23;;;1.55;;
47335;SDS011;33068;51.990;5.926;2022-12-29T18:05:47;10.15;;;1.30;;
47335;SDS011;33068;51.990;5.926;2022-12-29T18:08:19;8.15;;;1.60;;
47335;SDS011;33068;51.990;5.926;2022-12-29T18:10:46;11.43;;;1.77;;
47335;SDS011;33068;51.990;5.926;2022-12-29T18:13:30;9.45;;;1.60;;
47335;SDS011;33068;51.990;5.926;2022-12-29T18:16:35;7.53;;;1.23;;
47335;SDS011;33068;51.990;5.926;2022-12-29T18:22:56;8.55;;;1.75;;
47335;SDS011;33068;51.990;5.926;2022-12-29T18:25:26;3.70;;;1.08;;
47335;SDS011;33068;51.990;5.926;2022-12-29T18:28:06;8.32;;;1.52;;
47335;SDS011;33068;51.990;5.926;2022-12-29T18:30:33;8.02;;;1.65;;
47335;SDS011;33068;51.990;5.926;2022-12-29T18:33:01;9.10;;;1.98;;
47335;SDS011;33068;51.990;5.926;2022-12-29T18:35:31;8.30;;;1.27;;
47335;SDS011;33068;51.990;5.926;2022-12-29T18:38:03;13.38;;;1.70;;
47335;SDS011;33068;51.990;5.926;2022-12-29T18:40:32;6.50;;;1.02;;
47335;SDS011;33068;51.990;5.926;2022-12-29T18:43:00;9.77;;;1.15;;
47335;SDS011;33068;51.990;5.926;2022-12-29T18:45:29;8.25;;;1.48;;
47335;SDS011;33068;51.990;5.926;2022-12-29T18:47:57;5.00;;;1.15;;
47335;SDS011;33068;51.990;5.926;2022-12-29T18:50:25;7.50;;;1.52;;
47335;SDS011;33068;51.990;5.926;2022-12-29T18:52:52;7.85;;;1.13;;
47335;SDS011;33068;51.990;5.926;2022-12-29T18:55:20;8.27;;;1.23;;
47335;SDS011;33068;51.990;5.926;2022-12-29T18:57:50;10.38;;;1.42;;
47335;SDS011;33068;51.990;5.926;2022-12-29T19:00:18;8.13;;;2.50;;
47335;SDS011;33068;51.990;5.926;2022-12-29T19:02:49;7.88;;;1.50;;
47335;SDS011;33068;51.990;5.926;2022-12-29T19:05:18;21.35;;;3.92;;
47335;SDS011;33068;51.990;5.926;2022-12-29T19:07:50;13.68;;;2.53;;
47335;SDS011;33068;51.990;5.926;2022-12-29T19:10:18;10.95;;;2.13;;
47335;SDS011;33068;51.990;5.926;2022-12-29T19:12:47;8.85;;;2.70;;
47335;SDS011;33068;51.990;5.926;2022-12-29T19:15:19;12.02;;;1.60;;
47335;SDS011;33068;51.990;5.926;2022-12-29T19:17:49;11.95;;;2.90;;
47335;SDS011;33068;51.990;5.926;2022-12-29T19:20:26;12.98;;;2.67;;
47335;SDS011;33068;51.990;5.926;2022-12-29T19:22:55;11.73;;;3.55;;
47335;SDS011;33068;51.990;5.926;2022-12-29T19:25:23;8.57;;;2.20;;
47335;SDS011;33068;51.990;5.926;2022-12-29T19:27:54;10.45;;;2.28;;
47335;SDS011;33068;51.990;5.926;2022-12-29T19:30:23;14.93;;;3.10;;
47335;SDS011;33068;51.990;5.926;2022-12-29T19:32:50;13.05;;;3.83;;
47335;SDS011;33068;51.990;5.926;2022-12-29T19:35:19;14.98;;;4.38;;
47335;SDS011;33068;51.990;5.926;2022-12-29T19:37:49;10.40;;;2.28;;
47335;SDS011;33068;51.990;5.926;2022-12-29T19:40:17;21.33;;;2.30;;
47335;SDS011;33068;51.990;5.926;2022-12-29T19:42:47;8.23;;;2.17;;
47335;SDS011;33068;51.990;5.926;2022-12-29T19:45:14;10.05;;;2.17;;
47335;SDS011;33068;51.990;5.926;2022-12-29T19:47:43;15.10;;;1.90;;
47335;SDS011;33068;51.990;5.926;2022-12-29T19:50:12;20.08;;;3.20;;
47335;SDS011;33068;51.990;5.926;2022-12-29T19:52:42;10.15;;;2.38;;
47335;SDS011;33068;51.990;5.926;2022-12-29T19:55:10;14.70;;;2.20;;
47335;SDS011;33068;51.990;5.926;2022-12-29T19:57:39;10.43;;;1.88;;
47335;SDS011;33068;51.990;5.926;2022-12-29T20:00:07;12.80;;;2.05;;
47335;SDS011;33068;51.990;5.926;2022-12-29T20:02:38;16.02;;;2.10;;